createdAt,value
2023-11-18T00:04:31.563Z,2.99
2023-11-18T00:09:32.940Z,2.91
2023-11-18T00:14:34.313Z,2.71
2023-11-18T00:19:37.673Z,2.57
2023-11-18T00:24:39.104Z,2.51
2023-11-18T00:29:40.459Z,2.53
2023-11-18T00:34:42.015Z,2.68
2023-11-18T00:39:45.169Z,2.86
2023-11-18T00:44:46.534Z,3.08
2023-11-18T00:49:48.234Z,3.24
2023-11-18T00:54:49.657Z,3.28
2023-11-18T00:59:51.096Z,3.33
2023-11-18T01:04:52.540Z,3.44
2023-11-18T01:09:53.918Z,3.42
2023-11-18T01:14:55.280Z,3.37
2023-11-18T01:19:56.721Z,3.27
2023-11-18T01:24:59.472Z,2.98
2023-11-18T01:30:01.228Z,2.83
2023-11-18T01:35:02.862Z,2.82
2023-11-18T01:40:08.401Z,2.85
2023-11-18T01:45:12.701Z,3.02
2023-11-18T01:50:15.474Z,3.35
2023-11-18T01:55:18.136Z,3.50
2023-11-18T02:00:19.842Z,3.50
2023-11-18T02:05:22.766Z,3.54
2023-11-18T02:10:26.393Z,3.56
2023-11-18T02:15:28.768Z,3.57
2023-11-18T02:20:31.265Z,3.58
2023-11-18T02:25:35.338Z,3.58
2023-11-18T02:30:36.730Z,3.54
2023-11-18T02:35:42.064Z,3.61
2023-11-18T02:40:45.544Z,3.59
2023-11-18T02:50:49.177Z,3.51
2023-11-18T02:55:53.084Z,3.60
2023-11-18T03:00:54.802Z,3.62
2023-11-18T03:05:56.169Z,3.66
2023-11-18T03:11:00.791Z,3.64
2023-11-18T03:16:02.341Z,3.58
2023-11-18T03:21:03.740Z,3.57
2023-11-18T03:26:06.707Z,3.55
2023-11-18T03:31:08.499Z,3.48
2023-11-18T03:36:10.191Z,3.53
2023-11-18T03:41:12.304Z,3.44
2023-11-18T03:46:13.775Z,3.44
2023-11-18T03:51:18.022Z,3.41
2023-11-18T03:56:19.707Z,3.46
2023-11-18T04:01:24.980Z,3.43
2023-11-18T04:06:26.419Z,3.38
2023-11-18T04:11:27.811Z,3.42
2023-11-18T04:16:29.208Z,3.40
2023-11-18T04:21:30.597Z,3.36
2023-11-18T04:26:32.555Z,3.37
2023-11-18T04:31:35.393Z,3.36
2023-11-18T04:36:36.829Z,3.36
2023-11-18T04:41:38.380Z,3.43
2023-11-18T04:46:39.785Z,3.51
2023-11-18T04:51:41.163Z,3.51
2023-11-18T04:56:42.668Z,3.53
2023-11-18T05:01:44.160Z,3.54
2023-11-18T05:06:45.958Z,3.54
2023-11-18T05:11:47.448Z,3.55
2023-11-18T05:16:49.153Z,3.51
2023-11-18T05:21:51.432Z,3.51
2023-11-18T05:26:53.629Z,3.45
2023-11-18T05:31:55.871Z,3.43
2023-11-18T05:36:58.483Z,3.52
2023-11-18T05:41:59.899Z,3.60
2023-11-18T05:47:02.871Z,3.59
2023-11-18T05:52:04.668Z,3.65
2023-11-18T05:57:06.016Z,3.70
2023-11-18T06:02:09.233Z,3.71
2023-11-18T06:07:10.753Z,3.76
2023-11-18T06:12:12.215Z,3.84
2023-11-18T06:17:14.397Z,3.90
2023-11-18T06:22:16.289Z,3.97
2023-11-18T06:27:18.680Z,3.97
2023-11-18T06:32:20.577Z,3.96
2023-11-18T06:37:22.181Z,3.99
2023-11-18T06:42:24.707Z,4.03
2023-11-18T06:47:26.218Z,4.11
2023-11-18T06:52:27.838Z,4.13
2023-11-18T06:57:29.219Z,4.13
2023-11-18T07:02:30.689Z,4.16
2023-11-18T07:07:32.150Z,4.21
2023-11-18T07:12:35.070Z,4.27
2023-11-18T07:17:36.601Z,4.33
2023-11-18T07:22:38.037Z,4.34
2023-11-18T07:27:40.178Z,4.41
2023-11-18T07:32:41.707Z,4.44
2023-11-18T07:37:43.155Z,4.49
2023-11-18T07:42:44.601Z,4.50
2023-11-18T07:47:47.562Z,4.46
2023-11-18T07:52:51.673Z,4.54
2023-11-18T07:57:53.285Z,4.60
2023-11-18T08:02:55.641Z,4.62
2023-11-18T08:07:57.194Z,4.68
2023-11-18T08:12:58.549Z,4.70
2023-11-18T08:18:00.318Z,4.72
2023-11-18T08:23:01.795Z,4.85
2023-11-18T08:28:04.849Z,4.94
2023-11-18T08:33:09.826Z,4.95
2023-11-18T08:38:13.556Z,4.93
2023-11-18T08:43:17.484Z,4.98
2023-11-18T08:48:19.597Z,5.00
2023-11-18T08:53:27.304Z,5.04
2023-11-18T08:58:30.222Z,5.12
2023-11-18T09:03:38.095Z,5.12
2023-11-18T09:08:40.139Z,5.06
2023-11-18T09:13:43.750Z,4.97
2023-11-18T09:18:48.225Z,5.01
2023-11-18T09:23:49.794Z,5.10
2023-11-18T09:28:51.468Z,5.01
2023-11-18T09:33:53.827Z,5.07
2023-11-18T09:38:55.611Z,5.17
2023-11-18T09:43:59.939Z,5.31
2023-11-18T09:49:10.082Z,5.34
2023-11-18T09:54:22.608Z,5.34
2023-11-18T09:59:29.593Z,5.42
2023-11-18T10:04:32.554Z,5.49
2023-11-18T10:09:44.205Z,5.56
2023-11-18T10:14:45.563Z,5.50
2023-11-18T10:19:53.689Z,5.55
2023-11-18T10:24:58.442Z,5.55
2023-11-18T10:30:03.779Z,5.60
2023-11-18T10:35:10.798Z,5.65
2023-11-18T10:40:14.789Z,5.67
2023-11-18T10:45:24.521Z,5.71
2023-11-18T10:50:33.021Z,5.62
2023-11-18T10:55:38.286Z,5.68
2023-11-18T11:00:49.768Z,5.68
2023-11-18T11:05:51.476Z,5.75
2023-11-18T11:10:55.483Z,5.80
2023-11-18T11:15:59.129Z,5.88
2023-11-18T11:21:06.252Z,5.84
2023-11-18T11:26:14.746Z,5.86
2023-11-18T11:31:25.377Z,5.93
2023-11-18T11:36:32.535Z,5.96
2023-11-18T11:41:35.548Z,6.04
2023-11-18T11:46:38.469Z,6.12
2023-11-18T11:51:51.767Z,6.09
2023-11-18T11:57:02.546Z,6.12
2023-11-18T12:02:08.875Z,6.14
2023-11-18T12:07:18.566Z,6.18
2023-11-18T12:12:22.633Z,6.20
2023-11-18T12:17:29.836Z,6.27
2023-11-18T12:22:51.942Z,6.35
2023-11-18T12:27:59.993Z,6.45
2023-11-18T12:33:12.036Z,6.50
2023-11-18T12:38:35.498Z,6.52
2023-11-18T12:44:08.212Z,6.62
2023-11-18T12:49:16.258Z,6.77
2023-11-18T12:54:20.584Z,6.72
2023-11-18T12:59:24.683Z,6.79
2023-11-18T13:04:28.317Z,6.86
2023-11-18T13:09:33.244Z,6.88
2023-11-18T13:14:37.538Z,6.82
2023-11-18T13:19:39.928Z,6.76
2023-11-18T13:24:42.102Z,6.81
2023-11-18T13:29:49.960Z,6.76
2023-11-18T13:34:52.651Z,6.73
2023-11-18T13:39:57.692Z,6.71
2023-11-18T13:45:10.468Z,6.69
2023-11-18T13:50:12.126Z,6.70
2023-11-18T13:55:18.232Z,6.69
2023-11-18T14:00:24.286Z,6.65
2023-11-18T14:05:25.884Z,6.60
2023-11-18T14:10:27.362Z,6.67
2023-11-18T14:15:28.777Z,6.60
2023-11-18T14:20:32.187Z,6.59
2023-11-18T14:25:34.968Z,6.64
2023-11-18T14:30:36.950Z,6.67
2023-11-18T14:35:38.917Z,6.69
2023-11-18T14:40:42.666Z,6.68
2023-11-18T14:45:44.487Z,6.63
2023-11-18T14:50:46.230Z,6.60
2023-11-18T14:55:47.615Z,6.57
2023-11-18T15:00:48.989Z,6.52
2023-11-18T15:05:50.901Z,6.50
2023-11-18T15:10:52.314Z,6.48
2023-11-18T15:15:53.772Z,6.51
2023-11-18T15:20:57.655Z,6.48
2023-11-18T15:25:59.238Z,6.44
2023-11-18T15:31:02.305Z,6.41
2023-11-18T15:36:04.731Z,6.42
2023-11-18T15:41:06.248Z,6.38
2023-11-18T15:46:11.990Z,6.35
2023-11-18T15:51:17.021Z,6.34
2023-11-18T15:56:20.206Z,6.37
2023-11-18T16:01:21.652Z,6.35
2023-11-18T16:06:23.067Z,6.34
2023-11-18T16:11:24.530Z,6.34
2023-11-18T16:16:28.322Z,6.36
2023-11-18T16:21:29.771Z,6.35
2023-11-18T16:26:31.190Z,6.38
2023-11-18T16:31:32.631Z,6.33
2023-11-18T16:36:34.060Z,6.36
2023-11-18T16:41:43.307Z,6.36
2023-11-18T16:46:47.482Z,6.42
2023-11-18T16:51:53.937Z,6.42
2023-11-18T16:56:57.343Z,6.45
2023-11-18T17:01:58.763Z,6.49
2023-11-18T17:07:00.203Z,6.47
2023-11-18T17:12:01.598Z,6.53
2023-11-18T17:17:02.994Z,6.56
2023-11-18T17:22:06.041Z,6.55
2023-11-18T17:27:08.111Z,6.58
2023-11-18T17:32:09.782Z,6.57
2023-11-18T17:37:12.930Z,6.63
2023-11-18T17:42:14.360Z,6.67
2023-11-18T17:47:16.876Z,6.73
2023-11-18T17:52:18.275Z,6.70
2023-11-18T17:57:19.661Z,6.73
2023-11-18T18:02:21.090Z,6.75
2023-11-18T18:07:22.479Z,6.76
2023-11-18T18:12:23.902Z,6.80
2023-11-18T18:17:25.506Z,6.82
2023-11-18T18:22:28.351Z,6.81
2023-11-18T18:27:29.732Z,6.81
2023-11-18T18:32:31.652Z,6.86
2023-11-18T18:37:33.226Z,6.89
2023-11-18T18:42:34.576Z,6.88
2023-11-18T18:47:36.313Z,6.82
2023-11-18T18:52:37.936Z,6.83
2023-11-18T18:57:39.292Z,6.83
2023-11-18T19:02:41.386Z,6.84
2023-11-18T19:07:42.840Z,6.89
2023-11-18T19:12:44.220Z,6.96
2023-11-18T19:17:45.968Z,7.01
2023-11-18T19:22:47.358Z,7.07
2023-11-18T19:27:48.795Z,7.11
2023-11-18T19:32:50.364Z,7.14
2023-11-18T19:37:51.848Z,7.21
2023-11-18T19:42:53.213Z,7.27
2023-11-18T19:47:54.669Z,7.33
2023-11-18T19:52:56.473Z,7.37
2023-11-18T19:57:58.382Z,7.43
2023-11-18T20:02:59.967Z,7.43
2023-11-18T20:08:01.463Z,7.47
2023-11-18T20:13:02.934Z,7.45
2023-11-18T20:18:06.657Z,7.50
2023-11-18T20:23:10.257Z,7.53
2023-11-18T20:28:11.691Z,7.59
2023-11-18T20:33:13.113Z,7.57
2023-11-18T20:38:14.570Z,7.57
2023-11-18T20:43:17.399Z,7.64
2023-11-18T20:48:18.825Z,7.67
2023-11-18T20:53:20.427Z,7.70
2023-11-18T20:58:22.490Z,7.77
2023-11-18T21:03:24.142Z,7.80
2023-11-18T21:08:25.692Z,7.84
2023-11-18T21:13:28.114Z,7.86
2023-11-18T21:18:29.504Z,7.84
2023-11-18T21:23:33.916Z,7.94
2023-11-18T21:28:36.993Z,8.02
2023-11-18T21:33:38.735Z,7.94
2023-11-18T21:38:40.223Z,7.98
2023-11-18T21:43:42.138Z,8.00
2023-11-18T21:48:43.503Z,8.01
2023-11-18T21:53:45.083Z,8.09
2023-11-18T21:58:46.538Z,8.12
2023-11-18T22:03:48.021Z,8.18
2023-11-18T22:08:49.905Z,8.18
2023-11-18T22:13:52.841Z,8.24
2023-11-18T22:18:54.200Z,8.22
2023-11-18T22:23:55.565Z,8.27
2023-11-18T22:28:57.411Z,8.37
2023-11-18T22:33:59.326Z,8.37
2023-11-18T22:39:00.685Z,8.34
2023-11-18T22:44:02.030Z,8.33
2023-11-18T22:49:03.891Z,8.30
2023-11-18T22:54:05.371Z,8.37
2023-11-18T22:59:08.138Z,8.42
2023-11-18T23:04:12.996Z,8.49
2023-11-18T23:09:14.772Z,8.57
2023-11-18T23:14:16.316Z,8.70
2023-11-18T23:19:17.726Z,8.82
2023-11-18T23:24:19.081Z,8.87
2023-11-18T23:29:20.452Z,8.91
2023-11-18T23:34:21.916Z,8.90
2023-11-18T23:39:29.683Z,8.94
2023-11-18T23:44:32.410Z,8.88
2023-11-18T23:49:33.862Z,8.83
2023-11-18T23:54:36.703Z,8.86
2023-11-18T23:59:38.057Z,8.86
